createdAt,value
2022-12-25T00:01:33.281Z,99998.56
2022-12-25T00:04:00.865Z,100003.59
2022-12-25T00:06:28.782Z,100004.94
2022-12-25T00:08:56.286Z,100003.25
2022-12-25T00:11:23.554Z,100003.81
2022-12-25T00:13:51.396Z,100000.03
2022-12-25T00:16:23.854Z,100001.13
2022-12-25T00:18:52.302Z,100014.03
2022-12-25T00:21:20.776Z,100024.78
2022-12-25T00:23:49.053Z,100024.78
2022-12-25T00:26:17.880Z,100026.16
2022-12-25T00:28:45.589Z,100029.03
2022-12-25T00:31:15.873Z,100032.91
2022-12-25T00:33:44.901Z,100038.94
2022-12-25T00:36:14.398Z,100040.66
2022-12-25T00:38:42.802Z,100047.84
2022-12-25T00:41:12.889Z,100047.25
2022-12-25T00:43:42.322Z,100040.16
2022-12-25T00:46:11.145Z,100039.38
2022-12-25T00:48:39.205Z,100041.22
2022-12-25T00:51:08.737Z,100046.19
2022-12-25T00:53:36.399Z,100048.31
2022-12-25T00:56:05.904Z,100046.19
2022-12-25T00:58:34.621Z,100046.66
2022-12-25T01:01:03.400Z,100053.44
2022-12-25T01:03:31.064Z,100058.88
2022-12-25T01:06:01.790Z,100064.28
2022-12-25T01:08:33.659Z,100060.78
2022-12-25T01:11:09.302Z,100059.13
2022-12-25T01:13:37.584Z,100059.81
2022-12-25T01:16:12.468Z,100066.19
2022-12-25T01:18:40.343Z,100075.91
2022-12-25T01:21:11.610Z,100084.22
2022-12-25T01:23:39.853Z,100082.56
2022-12-25T01:26:09.197Z,100079.94
2022-12-25T01:28:37.461Z,100082.09
2022-12-25T01:31:05.610Z,100082.69
2022-12-25T01:33:33.321Z,100076.66
2022-12-25T01:36:00.842Z,100072.78
2022-12-25T01:38:28.590Z,100089.88
2022-12-25T01:40:56.415Z,100091.25
2022-12-25T01:43:26.520Z,100098.59
2022-12-25T01:45:54.599Z,100087.16
2022-12-25T01:48:25.600Z,100075.72
2022-12-25T01:50:59.052Z,100072.44
2022-12-25T01:53:26.860Z,100076.13
2022-12-25T01:55:58.598Z,100074.56
2022-12-25T01:58:26.597Z,100090.41
2022-12-25T02:00:54.552Z,100095.91
2022-12-25T02:03:22.970Z,100094.94
2022-12-25T02:05:51.628Z,100090.31
2022-12-25T02:08:20.548Z,100081.16
2022-12-25T02:10:48.231Z,100084.88
2022-12-25T02:13:18.090Z,100079.66
2022-12-25T02:15:57.249Z,100084.09
2022-12-25T02:18:44.534Z,100079.44
2022-12-25T02:21:59.304Z,100081.56
2022-12-25T02:25:23.732Z,100072.28
2022-12-25T02:28:01.837Z,100084.78
2022-12-25T02:30:32.508Z,100086.88
2022-12-25T02:33:22.614Z,100092.63
2022-12-25T02:35:53.541Z,100088.72
2022-12-25T02:38:29.888Z,100088.44
2022-12-25T02:41:00.350Z,100097.34
2022-12-25T02:43:52.629Z,100098.44
2022-12-25T02:46:41.663Z,100093.22
2022-12-25T02:49:45.994Z,100091.66
2022-12-25T02:52:36.446Z,100104.44
2022-12-25T02:55:29.150Z,100108.91
2022-12-25T02:58:17.328Z,100115.13
2022-12-25T03:01:06.655Z,100118.22
2022-12-25T03:03:54.367Z,100121.88
2022-12-25T03:06:41.553Z,100123.63
2022-12-25T03:09:31.458Z,100126.16
2022-12-25T03:12:10.911Z,100137.00
2022-12-25T03:14:57.373Z,100129.53
2022-12-25T03:17:24.833Z,100134.41
2022-12-25T03:20:10.373Z,100128.09
2022-12-25T03:22:56.802Z,100133.81
2022-12-25T03:25:42.920Z,100131.38
2022-12-25T03:28:10.546Z,100139.53
2022-12-25T03:31:02.669Z,100141.94
2022-12-25T03:33:46.701Z,100154.84
2022-12-25T03:36:25.551Z,100157.00
2022-12-25T03:39:23.564Z,100146.63
2022-12-25T03:42:11.936Z,100151.84
2022-12-25T03:45:13.128Z,100148.19
2022-12-25T03:47:54.137Z,100152.13
2022-12-25T03:50:45.094Z,100154.63
2022-12-25T03:53:38.977Z,100159.69
2022-12-25T03:56:25.398Z,100160.56
2022-12-25T03:59:17.777Z,100150.19
2022-12-25T04:02:07.094Z,100150.97
2022-12-25T04:04:52.572Z,100150.66
2022-12-25T04:07:38.570Z,100151.63
2022-12-25T04:10:25.402Z,100138.09
2022-12-25T04:13:11.575Z,100146.53
2022-12-25T04:15:57.661Z,100157.53
2022-12-25T04:18:43.662Z,100165.97
2022-12-25T04:21:30.155Z,100165.00
2022-12-25T04:24:16.311Z,100159.84
2022-12-25T04:27:06.588Z,100164.31
2022-12-25T04:29:52.590Z,100162.00
2022-12-25T04:32:38.689Z,100158.31
2022-12-25T04:35:25.288Z,100154.63
2022-12-25T04:37:52.969Z,100150.16
2022-12-25T04:40:20.689Z,100144.16
2022-12-25T04:42:50.693Z,100145.13
2022-12-25T04:45:18.587Z,100150.16
2022-12-25T04:47:46.416Z,100151.03
2022-12-25T04:50:13.675Z,100155.28
2022-12-25T04:52:41.747Z,100163.44
2022-12-25T04:55:10.444Z,100160.63
2022-12-25T04:57:38.712Z,100156.50
2022-12-25T05:00:07.071Z,100159.03
2022-12-25T05:02:34.852Z,100176.63
2022-12-25T05:05:02.591Z,100163.16
2022-12-25T05:07:30.376Z,100163.22
2022-12-25T05:09:58.626Z,100173.28
2022-12-25T05:12:26.163Z,100182.31
2022-12-25T05:14:53.604Z,100185.78
2022-12-25T05:17:21.009Z,100188.47
2022-12-25T05:19:48.389Z,100181.97
2022-12-25T05:22:16.008Z,100184.66
2022-12-25T05:24:43.392Z,100176.03
2022-12-25T05:27:11.007Z,100173.22
2022-12-25T05:29:38.601Z,100177.94
2022-12-25T05:32:06.211Z,100183.19
2022-12-25T05:34:33.683Z,100181.38
2022-12-25T05:37:01.438Z,100188.69
2022-12-25T05:39:28.693Z,100182.69
2022-12-25T05:41:56.442Z,100188.44
2022-12-25T05:44:23.952Z,100189.47
2022-12-25T05:46:51.481Z,100193.22
2022-12-25T05:49:18.726Z,100193.28
2022-12-25T05:51:46.453Z,100210.09
2022-12-25T05:54:14.023Z,100210.19
2022-12-25T05:56:41.607Z,100210.81
2022-12-25T05:59:09.050Z,100208.31
2022-12-25T06:01:36.681Z,100215.19
2022-12-25T06:04:10.202Z,100211.63
2022-12-25T06:06:39.785Z,100208.09
2022-12-25T06:09:07.188Z,100205.53
2022-12-25T06:11:34.741Z,100216.00
2022-12-25T06:14:02.259Z,100209.00
2022-12-25T06:16:37.266Z,100200.94
2022-12-25T06:19:05.619Z,100192.41
2022-12-25T06:21:33.614Z,100200.22
2022-12-25T06:24:02.169Z,100211.47
2022-12-25T06:26:29.746Z,100210.19
2022-12-25T06:28:57.345Z,100214.66
2022-12-25T06:31:24.816Z,100218.09
2022-12-25T06:33:52.476Z,100218.72
2022-12-25T06:36:22.552Z,100216.38
2022-12-25T06:38:50.473Z,100223.16
2022-12-25T06:41:19.999Z,100219.50
2022-12-25T06:43:52.548Z,100217.97
2022-12-25T06:46:21.024Z,100221.91
2022-12-25T06:48:50.022Z,100219.88
2022-12-25T06:51:22.928Z,100232.72
2022-12-25T06:53:51.216Z,100240.56
2022-12-25T06:56:22.080Z,100242.44
2022-12-25T06:58:57.476Z,100235.94
2022-12-25T07:01:30.663Z,100240.38
2022-12-25T07:04:01.495Z,100255.22
2022-12-25T07:06:29.479Z,100256.78
2022-12-25T07:08:57.065Z,100265.03
2022-12-25T07:11:24.845Z,100265.28
2022-12-25T07:13:52.287Z,100275.97
2022-12-25T07:16:20.584Z,100276.94
2022-12-25T07:18:48.218Z,100277.94
2022-12-25T07:21:18.492Z,100284.19
2022-12-25T07:23:47.317Z,100298.00
2022-12-25T07:26:15.086Z,100295.59
2022-12-25T07:28:42.787Z,100290.56
2022-12-25T07:31:14.977Z,100296.09
2022-12-25T07:33:43.036Z,100296.31
2022-12-25T07:36:12.911Z,100303.59
2022-12-25T07:38:44.245Z,100310.00
2022-12-25T07:41:13.395Z,100316.84
2022-12-25T07:43:41.003Z,100319.38
2022-12-25T07:46:08.815Z,100312.13
2022-12-25T07:48:37.076Z,100320.47
2022-12-25T07:51:06.639Z,100319.00
2022-12-25T07:53:35.081Z,100323.16
2022-12-25T07:56:05.499Z,100329.34
2022-12-25T07:58:33.331Z,100334.88
2022-12-25T08:01:19.796Z,100342.47
2022-12-25T08:03:54.984Z,100343.78
2022-12-25T08:06:25.322Z,100342.97
2022-12-25T08:08:52.959Z,100347.84
2022-12-25T08:11:20.523Z,100350.50
2022-12-25T08:13:48.094Z,100352.41
2022-12-25T08:16:15.762Z,100347.13
2022-12-25T08:18:43.758Z,100351.41
2022-12-25T08:21:13.753Z,100350.81
2022-12-25T08:23:43.891Z,100356.44
2022-12-25T08:26:13.659Z,100353.00
2022-12-25T08:28:41.111Z,100356.06
2022-12-25T08:31:29.886Z,100351.78
2022-12-25T08:33:58.590Z,100353.84
2022-12-25T08:36:26.126Z,100359.78
2022-12-25T08:39:00.451Z,100361.28
2022-12-25T08:41:30.541Z,100354.44
2022-12-25T08:43:58.343Z,100362.69
2022-12-25T08:46:26.191Z,100368.53
2022-12-25T08:48:53.760Z,100362.63
2022-12-25T08:51:22.034Z,100365.78
2022-12-25T08:53:50.591Z,100363.91
2022-12-25T08:56:18.803Z,100365.78
2022-12-25T08:58:46.692Z,100370.31
2022-12-25T09:01:14.180Z,100370.94
2022-12-25T09:03:42.224Z,100366.94
2022-12-25T09:06:13.352Z,100369.28
2022-12-25T09:08:48.008Z,100362.72
2022-12-25T09:11:17.087Z,100369.34
2022-12-25T09:13:44.258Z,100365.66
2022-12-25T09:16:15.704Z,100370.44
2022-12-25T09:18:43.388Z,100363.41
2022-12-25T09:21:13.239Z,100375.66
2022-12-25T09:23:40.786Z,100378.00
2022-12-25T09:26:11.246Z,100373.69
2022-12-25T09:28:38.797Z,100377.97
2022-12-25T09:31:06.586Z,100373.84
2022-12-25T09:33:34.129Z,100379.31
2022-12-25T09:36:03.922Z,100375.41
2022-12-25T09:38:32.134Z,100373.19
2022-12-25T09:41:07.899Z,100377.41
2022-12-25T09:43:41.135Z,100386.75
2022-12-25T09:46:15.108Z,100375.84
2022-12-25T09:48:48.939Z,100375.53
2022-12-25T09:51:17.273Z,100372.41
2022-12-25T09:53:52.568Z,100381.34
2022-12-25T09:56:26.805Z,100387.25
2022-12-25T09:58:54.808Z,100374.50
2022-12-25T10:01:36.506Z,100381.19
2022-12-25T10:04:14.371Z,100382.94
2022-12-25T10:07:19.142Z,100388.34
2022-12-25T10:10:21.569Z,100387.94
2022-12-25T10:13:07.288Z,100391.19
2022-12-25T10:16:12.178Z,100384.22
2022-12-25T10:18:52.808Z,100384.00
2022-12-25T10:21:20.762Z,100386.53
2022-12-25T10:23:49.151Z,100386.22
2022-12-25T10:26:19.822Z,100386.97
2022-12-25T10:29:09.955Z,100375.06
2022-12-25T10:31:37.598Z,100372.78
2022-12-25T10:34:06.400Z,100366.69
2022-12-25T10:36:34.292Z,100368.59
2022-12-25T10:39:01.834Z,100374.28
2022-12-25T10:42:06.078Z,100372.81
2022-12-25T10:44:34.823Z,100359.06
2022-12-25T10:47:03.672Z,100364.19
2022-12-25T10:49:33.586Z,100369.00
2022-12-25T10:52:02.915Z,100369.72
2022-12-25T10:54:35.989Z,100365.00
2022-12-25T10:57:04.430Z,100369.00
2022-12-25T10:59:36.169Z,100369.13
2022-12-25T11:02:13.178Z,100362.66
2022-12-25T11:04:40.980Z,100358.03
2022-12-25T11:07:15.834Z,100359.19
2022-12-25T11:09:50.843Z,100351.56
2022-12-25T11:12:19.177Z,100343.91
2022-12-25T11:15:01.447Z,100338.56
2022-12-25T11:17:28.985Z,100344.28
2022-12-25T11:19:58.861Z,100339.28
2022-12-25T11:22:27.570Z,100348.47
2022-12-25T11:24:55.455Z,100342.34
2022-12-25T11:27:30.609Z,100334.59
2022-12-25T11:30:03.430Z,100326.84
2022-12-25T11:32:47.079Z,100335.63
2022-12-25T11:35:17.805Z,100331.28
2022-12-25T11:37:51.002Z,100327.94
2022-12-25T11:40:25.793Z,100330.25
2022-12-25T11:43:04.103Z,100324.19
2022-12-25T11:45:42.163Z,100325.78
2022-12-25T11:48:16.613Z,100325.16
2022-12-25T11:50:59.450Z,100318.47
2022-12-25T11:53:35.172Z,100322.97
2022-12-25T11:56:07.024Z,100310.44
2022-12-25T11:58:50.115Z,100311.34
2022-12-25T12:01:48.317Z,100310.22
2022-12-25T12:04:42.386Z,100314.81
2022-12-25T12:07:25.828Z,100313.66
2022-12-25T12:10:38.120Z,100305.59
2022-12-25T12:13:14.458Z,100307.88
2022-12-25T12:15:45.634Z,100305.22
2022-12-25T12:18:23.023Z,100310.94
2022-12-25T12:21:01.629Z,100324.75
2022-12-25T12:23:30.905Z,100321.69
2022-12-25T12:25:58.465Z,100320.94
2022-12-25T12:28:35.032Z,100319.34
2022-12-25T12:31:05.315Z,100313.22
2022-12-25T12:33:38.619Z,100323.03
2022-12-25T12:36:06.733Z,100311.06
2022-12-25T12:38:34.929Z,100303.94
2022-12-25T12:41:05.452Z,100303.25
2022-12-25T12:43:45.355Z,100307.75
2022-12-25T12:46:27.907Z,100304.56
2022-12-25T12:49:29.924Z,100310.31
2022-12-25T12:52:21.929Z,100312.16
2022-12-25T12:55:13.314Z,100309.97
2022-12-25T12:57:41.693Z,100323.72
2022-12-25T13:00:17.928Z,100316.66
2022-12-25T13:03:14.965Z,100317.56
2022-12-25T13:05:54.934Z,100320.50
2022-12-25T13:08:50.142Z,100327.03
2022-12-25T13:11:24.950Z,100322.84
2022-12-25T13:13:54.753Z,100310.16
2022-12-25T13:16:25.562Z,100310.16
2022-12-25T13:18:54.500Z,100316.97
2022-12-25T13:21:29.506Z,100311.72
2022-12-25T13:24:01.337Z,100309.69
2022-12-25T13:26:29.662Z,100308.22
2022-12-25T13:28:57.664Z,100312.72
2022-12-25T13:31:29.985Z,100311.31
2022-12-25T13:34:03.966Z,100319.22
2022-12-25T13:36:37.250Z,100314.63
2022-12-25T13:39:08.177Z,100312.56
2022-12-25T13:42:01.340Z,100309.66
2022-12-25T13:44:31.667Z,100307.25
2022-12-25T13:47:24.755Z,100315.44
2022-12-25T13:49:54.958Z,100316.16
2022-12-25T13:52:34.679Z,100324.66
2022-12-25T13:55:13.979Z,100319.38
2022-12-25T13:57:49.523Z,100323.25
2022-12-25T14:00:20.788Z,100310.38
2022-12-25T14:02:49.675Z,100312.84
2022-12-25T14:05:29.366Z,100313.28
2022-12-25T14:07:59.738Z,100311.09
2022-12-25T14:10:35.263Z,100313.72
2022-12-25T14:13:05.772Z,100320.38
2022-12-25T14:15:33.992Z,100313.41
2022-12-25T14:18:01.984Z,100315.47
2022-12-25T14:20:31.987Z,100315.81
2022-12-25T14:23:00.994Z,100315.91
2022-12-25T14:25:42.852Z,100315.94
2022-12-25T14:28:19.274Z,100321.28
2022-12-25T14:30:46.944Z,100329.16
2022-12-25T14:33:20.284Z,100323.66
2022-12-25T14:35:48.381Z,100320.16
2022-12-25T14:38:28.260Z,100322.25
2022-12-25T14:41:08.006Z,100333.47
2022-12-25T14:43:36.700Z,100333.47
2022-12-25T14:46:08.259Z,100330.88
2022-12-25T14:48:35.826Z,100326.56
2022-12-25T14:51:09.950Z,100327.88
2022-12-25T14:53:47.007Z,100327.28
2022-12-25T14:56:20.158Z,100344.41
2022-12-25T14:58:51.136Z,100333.63
2022-12-25T15:01:28.089Z,100331.34
2022-12-25T15:04:08.650Z,100332.34
2022-12-25T15:06:37.359Z,100324.19
2022-12-25T15:09:13.562Z,100322.81
2022-12-25T15:11:41.406Z,100325.81
2022-12-25T15:14:08.896Z,100335.47
2022-12-25T15:16:47.398Z,100342.81
2022-12-25T15:19:25.379Z,100344.03
2022-12-25T15:21:54.770Z,100345.16
2022-12-25T15:24:22.973Z,100342.53
2022-12-25T15:26:50.030Z,100332.31
2022-12-25T15:29:23.646Z,100334.78
2022-12-25T15:32:05.157Z,100335.09
2022-12-25T15:34:32.724Z,100327.97
2022-12-25T15:37:00.575Z,100335.41
2022-12-25T15:39:27.977Z,100342.22
2022-12-25T15:42:14.612Z,100342.53
2022-12-25T15:44:42.749Z,100342.22
2022-12-25T15:47:14.172Z,100336.63
2022-12-25T15:49:41.874Z,100343.28
2022-12-25T15:52:13.309Z,100336.47
2022-12-25T15:54:40.736Z,100340.50
2022-12-25T15:57:18.800Z,100335.69
2022-12-25T15:59:46.532Z,100337.84
2022-12-25T16:02:17.182Z,100344.69
2022-12-25T16:04:45.243Z,100346.81
2022-12-25T16:07:21.057Z,100338.94
2022-12-25T16:09:48.595Z,100336.31
2022-12-25T16:12:16.429Z,100339.25
2022-12-25T16:14:43.873Z,100330.44
2022-12-25T16:17:16.115Z,100333.81
2022-12-25T16:19:45.079Z,100331.81
2022-12-25T16:22:22.048Z,100331.97
2022-12-25T16:24:50.439Z,100319.44
2022-12-25T16:27:18.607Z,100326.84
2022-12-25T16:29:46.184Z,100322.34
2022-12-25T16:32:15.074Z,100323.63
2022-12-25T16:34:43.008Z,100328.09
2022-12-25T16:37:10.757Z,100323.91
2022-12-25T16:39:38.261Z,100318.03
2022-12-25T16:42:05.865Z,100315.41
2022-12-25T16:44:36.599Z,100317.56
2022-12-25T16:47:04.635Z,100318.78
2022-12-25T16:49:32.447Z,100319.88
2022-12-25T16:52:00.091Z,100313.06
2022-12-25T16:54:27.900Z,100306.84
2022-12-25T16:56:55.899Z,100307.91
2022-12-25T16:59:23.769Z,100317.38
2022-12-25T17:01:51.948Z,100311.66
2022-12-25T17:04:19.767Z,100301.56
2022-12-25T17:06:49.052Z,100304.72
2022-12-25T17:09:16.639Z,100315.81
2022-12-25T17:11:44.436Z,100312.41
2022-12-25T17:14:11.773Z,100310.22
2022-12-25T17:16:40.643Z,100308.50
2022-12-25T17:19:13.467Z,100308.50
2022-12-25T17:21:41.113Z,100319.81
2022-12-25T17:24:09.927Z,100320.25
2022-12-25T17:26:37.783Z,100314.22
2022-12-25T17:29:05.084Z,100306.03
2022-12-25T17:31:32.836Z,100301.53
2022-12-25T17:34:01.924Z,100296.88
2022-12-25T17:36:30.118Z,100284.34
2022-12-25T17:39:00.374Z,100289.13
2022-12-25T17:41:28.466Z,100285.13
2022-12-25T17:43:56.129Z,100279.41
2022-12-25T17:46:25.966Z,100279.69
2022-12-25T17:48:55.789Z,100285.25
2022-12-25T17:51:25.387Z,100280.31
2022-12-25T17:53:55.478Z,100292.81
2022-12-25T17:56:24.148Z,100288.16
2022-12-25T17:58:53.138Z,100283.69
2022-12-25T18:01:21.568Z,100291.41
2022-12-25T18:03:49.705Z,100293.41
2022-12-25T18:06:19.664Z,100290.19
2022-12-25T18:08:47.664Z,100291.25
2022-12-25T18:11:22.664Z,100292.81
2022-12-25T18:13:52.481Z,100297.16
2022-12-25T18:16:22.466Z,100296.88
2022-12-25T18:18:52.539Z,100281.53
2022-12-25T18:21:22.214Z,100285.72
2022-12-25T18:23:50.541Z,100271.66
2022-12-25T18:26:19.154Z,100274.28
2022-12-25T18:28:47.164Z,100281.84
2022-12-25T18:31:17.535Z,100281.09
2022-12-25T18:33:45.508Z,100282.03
2022-12-25T18:36:14.695Z,100285.25
2022-12-25T18:38:42.972Z,100279.03
2022-12-25T18:41:11.508Z,100273.00
2022-12-25T18:43:52.288Z,100283.84
2022-12-25T18:46:26.845Z,100288.16
2022-12-25T18:48:55.689Z,100281.47
2022-12-25T18:51:23.577Z,100269.09
2022-12-25T18:53:51.729Z,100271.53
2022-12-25T18:56:19.492Z,100263.66
2022-12-25T18:58:47.970Z,100266.09
2022-12-25T19:01:22.831Z,100265.47
2022-12-25T19:03:51.821Z,100263.91
2022-12-25T19:06:20.520Z,100255.06
2022-12-25T19:08:48.514Z,100247.97
2022-12-25T19:11:16.502Z,100243.94
2022-12-25T19:13:44.309Z,100246.56
2022-12-25T19:16:12.563Z,100245.06
2022-12-25T19:18:41.087Z,100255.41
2022-12-25T19:21:09.676Z,100259.28
2022-12-25T19:23:38.318Z,100259.34
2022-12-25T19:26:07.458Z,100252.84
2022-12-25T19:28:35.836Z,100251.16
2022-12-25T19:31:03.796Z,100258.59
2022-12-25T19:33:32.407Z,100265.91
2022-12-25T19:36:03.598Z,100262.81
2022-12-25T19:38:31.210Z,100265.31
2022-12-25T19:41:01.527Z,100262.53
2022-12-25T19:43:30.418Z,100262.69
2022-12-25T19:45:58.046Z,100250.78
2022-12-25T19:48:26.080Z,100241.81
2022-12-25T19:50:53.554Z,100239.34
2022-12-25T19:53:23.647Z,100244.13
2022-12-25T19:55:52.792Z,100243.66
2022-12-25T19:58:21.335Z,100238.41
2022-12-25T20:01:00.066Z,100231.91
2022-12-25T20:03:27.976Z,100221.56
2022-12-25T20:05:55.613Z,100213.66
2022-12-25T20:08:23.306Z,100213.47
2022-12-25T20:10:51.218Z,100214.75
2022-12-25T20:13:18.858Z,100220.44
2022-12-25T20:15:46.747Z,100215.19
2022-12-25T20:18:14.734Z,100229.91
2022-12-25T20:20:43.046Z,100237.50
2022-12-25T20:23:10.865Z,100239.19
2022-12-25T20:25:42.007Z,100230.84
2022-12-25T20:28:09.738Z,100225.41
2022-12-25T20:30:40.505Z,100211.63
2022-12-25T20:33:08.040Z,100207.13
2022-12-25T20:35:35.752Z,100207.75
2022-12-25T20:38:03.443Z,100204.66
2022-12-25T20:40:32.483Z,100196.28
2022-12-25T20:43:09.450Z,100213.00
2022-12-25T20:45:42.807Z,100208.22
2022-12-25T20:48:10.453Z,100209.31
2022-12-25T20:50:37.755Z,100199.56
2022-12-25T20:53:05.039Z,100204.03
2022-12-25T20:55:32.760Z,100211.16
2022-12-25T20:58:00.236Z,100207.75
2022-12-25T21:00:27.760Z,100212.09
2022-12-25T21:02:55.354Z,100209.16
2022-12-25T21:05:22.767Z,100202.81
2022-12-25T21:07:50.243Z,100203.44
2022-12-25T21:10:17.767Z,100196.47
2022-12-25T21:12:45.140Z,100201.56
2022-12-25T21:15:15.712Z,100208.50
2022-12-25T21:17:43.460Z,100213.47
2022-12-25T21:20:11.567Z,100193.22
2022-12-25T21:22:38.973Z,100198.63
2022-12-25T21:25:06.672Z,100206.50
2022-12-25T21:27:34.267Z,100202.97
2022-12-25T21:30:15.313Z,100191.34
2022-12-25T21:33:01.561Z,100188.28
2022-12-25T21:35:29.081Z,100195.09
2022-12-25T21:37:56.781Z,100186.72
2022-12-25T21:40:24.260Z,100195.09
2022-12-25T21:42:52.494Z,100193.69
2022-12-25T21:45:20.279Z,100181.63
2022-12-25T21:48:01.606Z,100185.34
2022-12-25T21:50:48.901Z,100197.38
2022-12-25T21:53:17.269Z,100194.47
2022-12-25T21:55:59.633Z,100201.28
2022-12-25T21:58:26.946Z,100211.03
2022-12-25T22:00:54.454Z,100215.66
2022-12-25T22:03:21.899Z,100215.50
2022-12-25T22:06:07.712Z,100220.13
2022-12-25T22:08:34.874Z,100215.66
2022-12-25T22:11:05.800Z,100208.06
2022-12-25T22:13:51.575Z,100198.81
2022-12-25T22:16:37.506Z,100200.34
2022-12-25T22:19:23.578Z,100202.97
2022-12-25T22:21:51.813Z,100202.66
2022-12-25T22:24:19.091Z,100202.03
2022-12-25T22:26:46.743Z,100199.41
2022-12-25T22:29:13.920Z,100199.59
2022-12-25T22:31:46.747Z,100203.59
2022-12-25T22:34:16.297Z,100201.13
2022-12-25T22:36:43.586Z,100201.75
2022-12-25T22:39:10.818Z,100202.22
2022-12-25T22:41:38.027Z,100201.59
2022-12-25T22:44:20.882Z,100201.44
2022-12-25T22:46:48.740Z,100212.25
2022-12-25T22:49:16.732Z,100198.66
2022-12-25T22:51:44.648Z,100197.56
2022-12-25T22:54:16.658Z,100193.06
2022-12-25T22:56:45.511Z,100194.75
2022-12-25T22:59:14.119Z,100183.03
2022-12-25T23:01:41.933Z,100183.78
2022-12-25T23:04:10.225Z,100174.50
2022-12-25T23:06:37.873Z,100181.16
2022-12-25T23:09:06.599Z,100197.69
2022-12-25T23:11:35.325Z,100195.53
2022-12-25T23:14:20.836Z,100186.41
2022-12-25T23:16:48.141Z,100178.53
2022-12-25T23:19:33.940Z,100184.84
2022-12-25T23:22:20.839Z,100189.03
2022-12-25T23:25:06.676Z,100186.09
2022-12-25T23:27:34.612Z,100179.41
2022-12-25T23:30:02.176Z,100172.31
2022-12-25T23:32:29.609Z,100173.38
2022-12-25T23:34:57.138Z,100163.16
2022-12-25T23:37:24.612Z,100169.34
2022-12-25T23:39:52.120Z,100175.38
2022-12-25T23:42:19.609Z,100169.66
2022-12-25T23:44:47.167Z,100175.25
2022-12-25T23:47:14.790Z,100171.06
2022-12-25T23:49:42.692Z,100164.75
2022-12-25T23:52:12.952Z,100169.22
2022-12-25T23:54:40.293Z,100154.97
2022-12-25T23:57:07.857Z,100153.56
2022-12-25T23:59:35.582Z,100157.09
